Time;durP1;ratioP1;P1;durP2;ratioP2;P2;SDS_P1;SDS_P2;PMS_P1;PMS_P2;Temp;Humidity;BMP_temperature;BMP_pressure;BME280_temperature;BME280_humidity;BME280_pressure;Samples;Min_cycle;Max_cycle;Signal;HPM_P1;HPM_P2
2022/09/21 00:01:18;;;;;;;;;12.00;12.00;;;;;;;;5083024;27;52157;-53
2022/09/21 00:03:44;;;;;;;;;14.50;14.00;;;;;;;;5076235;27;51142;-53
2022/09/21 00:06:14;;;;;;;;;9.75;9.00;;;;;;;;5078779;27;51068;-54
2022/09/21 00:08:39;;;;;;;;;14.50;12.75;;;;;;;;5090855;27;50955;-54
2022/09/21 00:11:05;;;;;;;;;12.50;12.00;;;;;;;;5077977;27;53409;-52
2022/09/21 00:13:32;;;;;;;;;9.75;9.00;;;;;;;;5075448;27;51073;-50
2022/09/21 00:15:57;;;;;;;;;14.25;12.00;;;;;;;;5081901;27;51164;-52
2022/09/21 00:18:23;;;;;;;;;17.75;17.00;;;;;;;;5083225;27;51133;-52
2022/09/21 00:20:48;;;;;;;;;12.00;12.00;;;;;;;;5073677;27;51366;-52
2022/09/21 00:23:13;;;;;;;;;11.00;9.75;;;;;;;;5086982;27;51122;-50
2022/09/21 00:25:39;;;;;;;;;10.75;8.75;;;;;;;;5080336;27;51068;-56
2022/09/21 00:28:04;;;;;;;;;10.00;9.25;;;;;;;;5092705;27;51271;-51
2022/09/21 00:30:29;;;;;;;;;8.25;8.25;;;;;;;;5094262;27;51125;-52
2022/09/21 00:32:54;;;;;;;;;9.25;8.00;;;;;;;;5078221;27;51203;-53
2022/09/21 00:35:19;;;;;;;;;8.00;8.00;;;;;;;;5079437;27;51150;-53
2022/09/21 00:37:45;;;;;;;;;7.00;6.50;;;;;;;;5090685;27;51119;-53
2022/09/21 00:40:10;;;;;;;;;8.25;7.50;;;;;;;;5075313;27;51311;-53
2022/09/21 00:42:36;;;;;;;;;7.00;7.00;;;;;;;;5074797;27;51060;-52
2022/09/21 00:45:01;;;;;;;;;8.00;8.00;;;;;;;;5077488;27;51320;-52
2022/09/21 00:47:32;;;;;;;;;9.25;8.25;;;;;;;;5083231;27;51047;-52
2022/09/21 00:49:59;;;;;;;;;8.25;7.75;;;;;;;;5076688;27;52196;-53
2022/09/21 00:52:26;;;;;;;;;8.00;7.00;;;;;;;;5076308;27;52704;-50
2022/09/21 00:54:53;;;;;;;;;8.75;8.25;;;;;;;;5078447;27;51015;-50
2022/09/21 00:57:20;;;;;;;;;7.75;6.00;;;;;;;;5088293;27;51102;-51
2022/09/21 00:59:47;;;;;;;;;8.00;7.75;;;;;;;;5074827;27;51819;-51
2022/09/21 01:02:14;;;;;;;;;7.50;7.50;;;;;;;;5084735;27;50886;-50
2022/09/21 01:04:39;;;;;;;;;8.00;7.00;;;;;;;;5070090;27;51293;-50
2022/09/21 01:07:07;;;;;;;;;7.00;7.00;;;;;;;;5082080;27;51339;-50
2022/09/21 01:09:33;;;;;;;;;7.00;6.25;;;;;;;;5080205;27;52268;-51
2022/09/21 01:12:07;;;;;;;;;7.50;7.50;;;;;;;;5087224;27;50958;-53
2022/09/21 01:14:44;;;;;;;;;7.00;6.00;;;;;;;;5083062;27;51173;-53
2022/09/21 01:17:28;;;;;;;;;7.25;7.00;;;;;;;;5079980;27;51356;-50
2022/09/21 01:20:08;;;;;;;;;7.00;6.00;;;;;;;;5077551;27;51687;-52
2022/09/21 01:22:54;;;;;;;;;7.00;7.00;;;;;;;;5077102;27;50994;-52
2022/09/21 01:25:50;;;;;;;;;6.75;6.25;;;;;;;;5071326;27;51289;-51
2022/09/21 01:28:34;;;;;;;;;5.75;5.75;;;;;;;;5069239;27;51236;-54
2022/09/21 01:31:04;;;;;;;;;7.00;6.50;;;;;;;;5084974;27;51102;-52
2022/09/21 01:33:43;;;;;;;;;7.50;7.50;;;;;;;;5076285;27;51044;-50
2022/09/21 01:36:11;;;;;;;;;5.50;5.50;;;;;;;;5081398;27;51074;-50
2022/09/21 01:38:39;;;;;;;;;7.00;7.00;;;;;;;;5087896;27;51445;-54
2022/09/21 01:41:06;;;;;;;;;7.75;6.75;;;;;;;;5078110;27;51340;-51
2022/09/21 01:43:41;;;;;;;;;7.25;6.00;;;;;;;;5079077;27;51020;-54
2022/09/21 01:46:09;;;;;;;;;5.75;5.75;;;;;;;;5079523;27;51362;-54
2022/09/21 01:48:38;;;;;;;;;6.50;6.00;;;;;;;;5070723;27;51395;-51
2022/09/21 01:51:06;;;;;;;;;6.50;6.00;;;;;;;;5083866;27;52012;-51
2022/09/21 01:53:40;;;;;;;;;7.75;7.00;;;;;;;;5079696;27;51119;-53
2022/09/21 01:56:18;;;;;;;;;5.00;5.00;;;;;;;;5082884;27;50909;-50
2022/09/21 01:58:51;;;;;;;;;6.00;5.75;;;;;;;;5081259;27;51287;-52
2022/09/21 02:01:23;;;;;;;;;6.50;6.00;;;;;;;;5079475;27;52158;-54
2022/09/21 02:03:54;;;;;;;;;7.75;6.75;;;;;;;;5082836;27;50930;-48
2022/09/21 02:06:20;;;;;;;;;8.00;7.50;;;;;;;;5074987;27;51175;-50
2022/09/21 02:08:45;;;;;;;;;8.00;7.25;;;;;;;;5075107;27;51202;-52
2022/09/21 02:11:12;;;;;;;;;6.00;6.00;;;;;;;;5086972;27;51063;-50
2022/09/21 02:13:40;;;;;;;;;10.25;9.00;;;;;;;;5081119;27;51023;-51
2022/09/21 02:16:05;;;;;;;;;8.50;7.75;;;;;;;;5081082;27;50898;-51
2022/09/21 02:18:56;;;;;;;;;11.75;8.00;;;;;;;;5077047;27;51151;-58
2022/09/21 02:21:46;;;;;;;;;8.25;7.00;;;;;;;;5086635;27;51953;-51
2022/09/21 02:24:21;;;;;;;;;8.50;8.50;;;;;;;;5083958;27;51201;-52
2022/09/21 02:26:54;;;;;;;;;8.00;7.50;;;;;;;;5074518;27;51352;-50
2022/09/21 02:29:32;;;;;;;;;9.50;9.25;;;;;;;;5077737;27;50998;-53
2022/09/21 02:32:05;;;;;;;;;8.75;8.00;;;;;;;;5088098;27;51417;-53
2022/09/21 02:34:38;;;;;;;;;11.50;11.50;;;;;;;;5074464;27;52103;-50
2022/09/21 02:37:03;;;;;;;;;7.75;7.50;;;;;;;;5077076;27;50858;-52
2022/09/21 02:39:37;;;;;;;;;8.25;8.25;;;;;;;;5086049;27;50903;-53
2022/09/21 02:42:11;;;;;;;;;8.25;8.00;;;;;;;;5080148;27;51414;-53
2022/09/21 02:44:39;;;;;;;;;9.00;8.00;;;;;;;;5080820;27;51151;-51
2022/09/21 02:47:10;;;;;;;;;8.00;7.50;;;;;;;;5084595;27;51087;-49
2022/09/21 02:49:38;;;;;;;;;10.75;10.75;;;;;;;;5084210;27;51181;-49
2022/09/21 02:52:06;;;;;;;;;13.00;12.00;;;;;;;;5077701;27;52234;-52
2022/09/21 02:54:32;;;;;;;;;8.25;8.25;;;;;;;;5076884;27;51063;-53
2022/09/21 02:56:59;;;;;;;;;7.00;7.00;;;;;;;;5071882;27;51147;-52
2022/09/21 02:59:25;;;;;;;;;7.00;7.00;;;;;;;;5072803;28;51302;-52
2022/09/21 03:01:50;;;;;;;;;9.25;7.75;;;;;;;;5078405;27;52950;-52
2022/09/21 03:04:16;;;;;;;;;8.75;6.25;;;;;;;;5078136;27;51035;-54
2022/09/21 03:06:41;;;;;;;;;8.50;7.75;;;;;;;;5080229;27;51111;-52
2022/09/21 03:09:07;;;;;;;;;6.75;6.00;;;;;;;;5079184;27;51249;-50
2022/09/21 03:11:33;;;;;;;;;10.00;8.25;;;;;;;;5089701;27;52611;-50
2022/09/21 03:13:59;;;;;;;;;8.00;8.00;;;;;;;;5084344;27;51068;-53
2022/09/21 03:16:24;;;;;;;;;9.25;9.00;;;;;;;;5080662;27;51128;-54
2022/09/21 03:18:49;;;;;;;;;7.25;7.00;;;;;;;;5079284;27;51284;-53
2022/09/21 03:21:14;;;;;;;;;8.00;8.00;;;;;;;;5095422;27;52245;-52
2022/09/21 03:23:40;;;;;;;;;8.75;7.50;;;;;;;;5088216;27;51170;-51
2022/09/21 03:26:05;;;;;;;;;9.75;9.75;;;;;;;;5079042;27;51140;-50
2022/09/21 03:28:30;;;;;;;;;8.75;8.00;;;;;;;;5089343;27;51241;-51
2022/09/21 03:30:56;;;;;;;;;8.00;7.00;;;;;;;;5076832;27;51845;-50
2022/09/21 03:33:21;;;;;;;;;10.50;10.50;;;;;;;;5091125;27;51050;-53
2022/09/21 03:35:47;;;;;;;;;15.00;12.00;;;;;;;;5079283;27;51116;-53
2022/09/21 03:38:12;;;;;;;;;10.75;10.50;;;;;;;;5083479;27;51300;-51
2022/09/21 03:40:37;;;;;;;;;10.50;10.25;;;;;;;;5078055;27;52011;-49
2022/09/21 03:43:03;;;;;;;;;13.75;13.25;;;;;;;;5094968;27;51400;-50
2022/09/21 03:45:28;;;;;;;;;17.75;16.00;;;;;;;;5090223;27;51140;-51
2022/09/21 03:47:54;;;;;;;;;18.25;15.00;;;;;;;;5079083;27;51289;-52
2022/09/21 03:50:19;;;;;;;;;15.25;15.00;;;;;;;;5074630;27;51954;-53
2022/09/21 03:52:45;;;;;;;;;17.00;15.00;;;;;;;;5081850;27;51253;-50
2022/09/21 03:55:10;;;;;;;;;23.00;21.00;;;;;;;;5078107;27;51288;-53
2022/09/21 03:57:35;;;;;;;;;25.25;22.75;;;;;;;;5083307;27;51395;-53
2022/09/21 04:00:02;;;;;;;;;21.25;18.00;;;;;;;;5083388;27;51999;-52
2022/09/21 04:02:28;;;;;;;;;18.50;17.00;;;;;;;;5075677;27;51239;-51
2022/09/21 04:04:53;;;;;;;;;11.00;10.75;;;;;;;;5080856;27;52699;-54
2022/09/21 04:07:18;;;;;;;;;13.75;11.75;;;;;;;;5073631;27;50952;-49
2022/09/21 04:09:43;;;;;;;;;9.75;9.75;;;;;;;;5076986;27;52507;-52
2022/09/21 04:12:09;;;;;;;;;10.00;10.00;;;;;;;;5081879;27;51142;-52
2022/09/21 04:14:34;;;;;;;;;11.25;11.25;;;;;;;;5081439;27;50914;-50
2022/09/21 04:16:59;;;;;;;;;11.00;11.00;;;;;;;;5089353;27;50917;-51
2022/09/21 04:19:24;;;;;;;;;10.50;10.50;;;;;;;;5079666;27;52400;-50
2022/09/21 04:21:53;;;;;;;;;10.25;10.25;;;;;;;;5080466;27;51204;-51
2022/09/21 04:24:19;;;;;;;;;10.00;10.00;;;;;;;;5085269;27;51067;-51
2022/09/21 04:26:45;;;;;;;;;11.00;11.00;;;;;;;;5083676;27;51351;-48
2022/09/21 04:29:10;;;;;;;;;12.00;11.75;;;;;;;;5076341;27;51866;-52
2022/09/21 04:31:35;;;;;;;;;10.50;10.50;;;;;;;;5093976;27;51019;-50
2022/09/21 04:34:01;;;;;;;;;11.00;11.00;;;;;;;;5089414;27;51285;-53
2022/09/21 04:36:27;;;;;;;;;8.50;7.25;;;;;;;;5077538;27;51459;-49
2022/09/21 04:38:52;;;;;;;;;10.00;10.00;;;;;;;;5078561;27;51107;-49
2022/09/21 04:41:18;;;;;;;;;12.00;11.00;;;;;;;;5076232;27;51107;-51
2022/09/21 04:43:44;;;;;;;;;9.00;7.25;;;;;;;;5082181;27;51103;-51
2022/09/21 04:46:11;;;;;;;;;8.50;7.75;;;;;;;;5081648;27;51100;-50
2022/09/21 04:48:37;;;;;;;;;10.00;10.00;;;;;;;;5080182;27;52024;-49
2022/09/21 04:51:02;;;;;;;;;11.50;11.25;;;;;;;;5075699;27;51211;-50
2022/09/21 04:53:28;;;;;;;;;12.75;10.75;;;;;;;;5077576;27;51161;-52
2022/09/21 04:55:54;;;;;;;;;12.75;11.25;;;;;;;;5081050;27;51258;-49
2022/09/21 04:58:19;;;;;;;;;12.50;12.00;;;;;;;;5082848;27;51127;-54
2022/09/21 05:00:48;;;;;;;;;12.00;11.50;;;;;;;;5093402;27;50996;-49
2022/09/21 05:03:13;;;;;;;;;13.50;11.00;;;;;;;;5092961;27;51079;-52
2022/09/21 05:05:38;;;;;;;;;10.00;10.00;;;;;;;;5077907;27;51188;-50
2022/09/21 05:08:03;;;;;;;;;12.00;11.75;;;;;;;;5089404;27;52026;-50
2022/09/21 05:10:29;;;;;;;;;11.25;11.00;;;;;;;;5082699;27;51162;-52
2022/09/21 05:12:54;;;;;;;;;10.75;10.75;;;;;;;;5080010;27;51791;-53
2022/09/21 05:15:21;;;;;;;;;11.75;11.75;;;;;;;;5088215;27;51527;-51
2022/09/21 05:17:46;;;;;;;;;11.00;10.00;;;;;;;;5074159;27;51297;-49
2022/09/21 05:20:11;;;;;;;;;11.00;11.00;;;;;;;;5076989;27;51133;-49
2022/09/21 05:22:36;;;;;;;;;11.00;10.50;;;;;;;;5076656;27;51969;-52
2022/09/21 05:25:02;;;;;;;;;12.00;10.75;;;;;;;;5081293;27;51280;-54
2022/09/21 05:27:27;;;;;;;;;11.75;11.25;;;;;;;;5076286;27;51204;-53
2022/09/21 05:29:52;;;;;;;;;10.75;10.25;;;;;;;;5079974;27;51134;-53
2022/09/21 05:32:24;;;;;;;;;10.00;9.00;;;;;;;;5091228;27;50967;-52
2022/09/21 05:34:50;;;;;;;;;11.75;10.50;;;;;;;;5094118;27;50933;-52
2022/09/21 05:37:21;;;;;;;;;11.75;11.75;;;;;;;;5081099;27;51219;-52
2022/09/21 05:39:46;;;;;;;;;12.25;12.00;;;;;;;;5083019;27;51163;-53
2022/09/21 05:42:11;;;;;;;;;11.50;11.00;;;;;;;;5086068;27;52635;-51
2022/09/21 05:44:37;;;;;;;;;11.75;10.75;;;;;;;;5080877;27;51064;-50
2022/09/21 05:47:11;;;;;;;;;9.25;9.00;;;;;;;;5087351;27;51844;-51
2022/09/21 05:49:54;;;;;;;;;11.75;11.50;;;;;;;;5075461;27;51106;-53
2022/09/21 05:52:28;;;;;;;;;14.25;13.50;;;;;;;;5085698;27;51199;-52
2022/09/21 05:54:56;;;;;;;;;14.75;13.25;;;;;;;;5081153;27;51188;-52
2022/09/21 05:57:36;;;;;;;;;16.75;14.00;;;;;;;;5078066;27;51172;-54
2022/09/21 06:00:14;;;;;;;;;14.00;13.75;;;;;;;;5078271;27;50986;-53
2022/09/21 06:02:47;;;;;;;;;14.00;13.75;;;;;;;;5092180;27;51048;-52
2022/09/21 06:05:14;;;;;;;;;17.00;14.00;;;;;;;;5082730;27;51012;-54
2022/09/21 06:07:40;;;;;;;;;14.00;13.25;;;;;;;;5082277;27;51171;-52
2022/09/21 06:10:06;;;;;;;;;17.50;16.25;;;;;;;;5090445;27;51009;-50
2022/09/21 06:12:31;;;;;;;;;14.75;14.75;;;;;;;;5085954;27;51295;-53
2022/09/21 06:14:57;;;;;;;;;15.50;13.75;;;;;;;;5079435;27;52389;-53
2022/09/21 06:17:25;;;;;;;;;15.25;15.00;;;;;;;;5079442;27;52104;-51
2022/09/21 06:19:50;;;;;;;;;19.25;18.75;;;;;;;;5086299;27;51100;-52
2022/09/21 06:22:15;;;;;;;;;20.00;20.00;;;;;;;;5078386;27;51125;-48
2022/09/21 06:24:40;;;;;;;;;17.50;17.50;;;;;;;;5080530;27;51466;-50
2022/09/21 06:27:05;;;;;;;;;22.00;20.25;;;;;;;;5086998;27;51440;-49
2022/09/21 06:29:30;;;;;;;;;18.50;18.25;;;;;;;;5071962;27;51025;-54
2022/09/21 06:31:56;;;;;;;;;21.00;20.75;;;;;;;;5071808;27;51047;-56
2022/09/21 06:34:21;;;;;;;;;21.50;20.00;;;;;;;;5073165;27;51535;-53
2022/09/21 06:36:46;;;;;;;;;20.00;19.50;;;;;;;;5084280;27;51886;-56
2022/09/21 06:39:12;;;;;;;;;20.50;19.75;;;;;;;;5079971;27;51094;-54
2022/09/21 06:41:37;;;;;;;;;20.00;20.00;;;;;;;;5078564;27;51145;-56
2022/09/21 06:44:03;;;;;;;;;19.75;17.50;;;;;;;;5074557;27;51510;-56
2022/09/21 06:46:28;;;;;;;;;21.50;20.50;;;;;;;;5082239;27;51954;-56
2022/09/21 06:48:53;;;;;;;;;20.25;19.00;;;;;;;;5084446;27;51719;-56
2022/09/21 06:51:20;;;;;;;;;15.75;14.25;;;;;;;;5076545;27;51119;-55
2022/09/21 06:53:46;;;;;;;;;18.00;17.00;;;;;;;;5083276;27;51289;-55
2022/09/21 06:56:11;;;;;;;;;17.75;16.75;;;;;;;;5077292;27;52022;-56
2022/09/21 06:58:37;;;;;;;;;16.75;15.75;;;;;;;;5086837;27;51014;-55
2022/09/21 07:01:06;;;;;;;;;13.00;12.25;;;;;;;;5084212;27;51183;-50
2022/09/21 07:03:31;;;;;;;;;17.00;15.00;;;;;;;;5082763;27;51250;-54
2022/09/21 07:05:56;;;;;;;;;13.75;13.75;;;;;;;;5077841;27;51122;-54
2022/09/21 07:08:22;;;;;;;;;14.25;13.75;;;;;;;;5080385;27;51082;-54
2022/09/21 07:10:47;;;;;;;;;12.00;11.75;;;;;;;;5080974;27;51014;-53
2022/09/21 07:13:15;;;;;;;;;15.67;14.00;;;;;;;;5091869;27;50989;-53
2022/09/21 07:15:40;;;;;;;;;16.33;14.33;;;;;;;;5091576;27;51133;-52
2022/09/21 07:18:09;;;;;;;;;15.50;14.50;;;;;;;;5071525;27;51095;-53
2022/09/21 07:20:35;;;;;;;;;16.33;14.67;;;;;;;;5072252;27;50867;-50
2022/09/21 07:23:00;;;;;;;;;18.25;17.25;;;;;;;;5080167;27;51346;-53
2022/09/21 07:25:25;;;;;;;;;15.67;15.33;;;;;;;;5091710;27;51158;-54
2022/09/21 07:27:51;;;;;;;;;16.00;15.67;;;;;;;;5090245;27;50917;-49
2022/09/21 07:30:16;;;;;;;;;14.00;13.33;;;;;;;;5084140;27;51359;-50
2022/09/21 07:32:41;;;;;;;;;16.50;15.50;;;;;;;;5070113;27;51415;-52
2022/09/21 07:35:06;;;;;;;;;15.67;14.67;;;;;;;;5078171;27;51904;-51
2022/09/21 07:37:32;;;;;;;;;18.00;15.33;;;;;;;;5088921;27;51036;-51
2022/09/21 07:39:57;;;;;;;;;20.00;19.67;;;;;;;;5078835;27;51012;-52
2022/09/21 07:42:24;;;;;;;;;17.33;17.00;;;;;;;;5092000;27;50905;-52
2022/09/21 07:44:49;;;;;;;;;15.67;15.00;;;;;;;;5083846;27;51088;-51
2022/09/21 07:47:15;;;;;;;;;17.00;16.00;;;;;;;;5071306;27;51041;-52
2022/09/21 07:49:40;;;;;;;;;14.67;13.33;;;;;;;;5071146;27;51141;-52
2022/09/21 07:52:05;;;;;;;;;13.00;13.00;;;;;;;;5072448;27;51079;-50
2022/09/21 07:54:32;;;;;;;;;15.33;14.00;;;;;;;;5080562;27;52332;-53
2022/09/21 07:59:46;;;;;;;;;16.33;16.33;;;;;;;;5069749;27;51199;-53
2022/09/21 08:02:11;;;;;;;;;23.00;22.25;;;;;;;;5086740;27;51246;-51
2022/09/21 08:04:37;;;;;;;;;15.00;14.00;;;;;;;;5074495;27;50928;-51
2022/09/21 08:07:02;;;;;;;;;19.00;17.67;;;;;;;;5074260;27;50894;-58
2022/09/21 08:09:27;;;;;;;;;17.00;16.67;;;;;;;;5080714;27;51207;-56
2022/09/21 08:11:54;;;;;;;;;15.00;15.00;;;;;;;;5086081;27;51271;-52
2022/09/21 08:14:19;;;;;;;;;14.67;13.33;;;;;;;;5084474;27;53920;-53
2022/09/21 08:16:46;;;;;;;;;19.33;15.33;;;;;;;;5091198;27;51186;-51
2022/09/21 08:19:11;;;;;;;;;14.00;14.00;;;;;;;;5093238;27;51219;-53
2022/09/21 08:21:36;;;;;;;;;14.67;14.67;;;;;;;;5092751;27;51504;-54
2022/09/21 08:24:02;;;;;;;;;13.67;13.00;;;;;;;;5094097;27;52052;-52
2022/09/21 08:26:27;;;;;;;;;13.00;12.67;;;;;;;;5094628;27;51218;-51
2022/09/21 08:28:53;;;;;;;;;17.33;16.33;;;;;;;;5095141;27;51010;-52
2022/09/21 08:31:19;;;;;;;;;10.00;9.00;;;;;;;;5095127;27;50870;-52
2022/09/21 08:33:45;;;;;;;;;12.00;12.00;;;;;;;;5082792;27;52025;-53
2022/09/21 08:36:10;;;;;;;;;11.00;11.00;;;;;;;;5091810;27;50941;-53
2022/09/21 08:38:37;;;;;;;;;18.00;16.00;;;;;;;;5089289;27;51170;-53
2022/09/21 08:41:12;;;;;;;;;19.33;19.00;;;;;;;;5077384;27;51010;-54
2022/09/21 08:43:42;;;;;;;;;14.00;14.00;;;;;;;;5078172;27;51043;-52
2022/09/21 08:46:13;;;;;;;;;15.00;15.00;;;;;;;;5093653;27;51122;-53
2022/09/21 08:48:40;;;;;;;;;13.67;13.67;;;;;;;;5093968;27;50979;-52
2022/09/21 08:51:13;;;;;;;;;10.67;9.33;;;;;;;;5094500;27;51319;-53
2022/09/21 08:53:43;;;;;;;;;13.33;11.67;;;;;;;;5079033;27;52055;-54
2022/09/21 08:56:12;;;;;;;;;9.33;9.33;;;;;;;;5081811;27;51198;-54
2022/09/21 08:58:39;;;;;;;;;9.33;9.33;;;;;;;;5094459;27;51381;-52
2022/09/21 09:01:24;;;;;;;;;10.67;10.67;;;;;;;;5094040;27;51298;-54
2022/09/21 09:03:58;;;;;;;;;8.67;8.67;;;;;;;;5075276;27;50991;-54
2022/09/21 09:06:34;;;;;;;;;8.00;8.00;;;;;;;;5072902;27;51089;-53
2022/09/21 09:09:08;;;;;;;;;8.67;7.33;;;;;;;;5073315;27;51111;-54
2022/09/21 09:11:39;;;;;;;;;11.00;10.00;;;;;;;;5087987;27;50878;-51
2022/09/21 09:14:04;;;;;;;;;7.67;6.67;;;;;;;;5085892;27;51103;-52
2022/09/21 09:16:29;;;;;;;;;7.67;7.33;;;;;;;;5083532;27;51126;-52
2022/09/21 09:19:02;;;;;;;;;7.00;7.00;;;;;;;;5103785;27;51042;-54
2022/09/21 09:21:33;;;;;;;;;6.33;5.00;;;;;;;;5083126;27;51243;-49
2022/09/21 09:24:03;;;;;;;;;10.00;8.33;;;;;;;;5071546;28;51325;-53
2022/09/21 09:26:38;;;;;;;;;7.67;6.33;;;;;;;;5071017;27;51012;-53
2022/09/21 09:29:11;;;;;;;;;7.00;7.00;;;;;;;;5072585;27;51018;-52
2022/09/21 09:31:38;;;;;;;;;6.33;6.33;;;;;;;;5071190;28;50988;-52
2022/09/21 09:34:11;;;;;;;;;5.33;5.33;;;;;;;;5072962;27;51924;-53
2022/09/21 09:36:38;;;;;;;;;4.67;4.67;;;;;;;;5072952;27;51070;-51
2022/09/21 09:39:12;;;;;;;;;9.33;9.33;;;;;;;;5071073;28;50898;-50
2022/09/21 09:41:44;;;;;;;;;6.33;6.00;;;;;;;;5072776;27;51264;-53
2022/09/21 09:44:24;;;;;;;;;7.00;5.67;;;;;;;;5072619;27;52411;-53
2022/09/21 09:46:55;;;;;;;;;7.33;7.00;;;;;;;;5072484;27;50987;-53
2022/09/21 09:49:26;;;;;;;;;9.00;7.00;;;;;;;;5072685;27;50953;-54
2022/09/21 09:51:52;;;;;;;;;6.33;6.00;;;;;;;;5072728;27;51456;-51
2022/09/21 09:54:20;;;;;;;;;7.00;7.00;;;;;;;;5073099;27;52273;-53
2022/09/21 09:56:46;;;;;;;;;5.00;4.67;;;;;;;;5070887;28;51126;-54
2022/09/21 09:59:30;;;;;;;;;7.00;7.00;;;;;;;;5072254;27;50989;-54
2022/09/21 10:02:00;;;;;;;;;6.00;6.00;;;;;;;;5072679;27;50990;-54
2022/09/21 10:04:26;;;;;;;;;5.33;4.67;;;;;;;;5071995;27;51112;-53
2022/09/21 10:06:52;;;;;;;;;6.00;6.00;;;;;;;;5072347;27;50914;-52
2022/09/21 10:09:19;;;;;;;;;6.67;6.67;;;;;;;;5072251;27;50915;-53
2022/09/21 10:11:45;;;;;;;;;5.00;5.00;;;;;;;;5086292;27;51112;-53
2022/09/21 10:14:15;;;;;;;;;5.67;5.67;;;;;;;;5079873;27;52703;-53
2022/09/21 10:16:41;;;;;;;;;8.00;7.00;;;;;;;;5079549;27;51041;-54
2022/09/21 10:19:12;;;;;;;;;0.33;0.00;;;;;;;;5081341;27;50968;-52
2022/09/21 10:21:45;;;;;;;;;6.00;6.00;;;;;;;;5075535;27;51053;-52
2022/09/21 10:24:22;;;;;;;;;4.67;4.67;;;;;;;;5071649;27;52602;-52
2022/09/21 10:26:48;;;;;;;;;5.00;5.00;;;;;;;;5072192;27;51094;-53
2022/09/21 10:29:17;;;;;;;;;4.00;4.00;;;;;;;;5072274;27;50947;-52
2022/09/21 10:31:55;;;;;;;;;6.00;5.00;;;;;;;;5072483;27;50880;-52
2022/09/21 10:34:20;;;;;;;;;5.00;5.00;;;;;;;;5072069;27;51205;-52
2022/09/21 10:36:50;;;;;;;;;3.33;2.67;;;;;;;;5072110;27;51005;-55
2022/09/21 10:39:25;;;;;;;;;4.00;4.00;;;;;;;;5072023;27;51037;-53
2022/09/21 10:42:10;;;;;;;;;4.00;4.00;;;;;;;;5072217;28;51012;-53
2022/09/21 10:44:44;;;;;;;;;6.67;6.00;;;;;;;;5083931;27;52376;-51
2022/09/21 10:47:21;;;;;;;;;6.00;5.00;;;;;;;;5092205;27;50981;-53
2022/09/21 10:49:49;;;;;;;;;3.67;3.67;;;;;;;;5092442;27;51068;-53
2022/09/21 10:52:14;;;;;;;;;2.67;2.67;;;;;;;;5090314;27;51007;-53
2022/09/21 10:54:41;;;;;;;;;4.00;4.00;;;;;;;;5071732;27;51121;-53
2022/09/21 10:57:07;;;;;;;;;4.00;3.33;;;;;;;;5071834;27;51129;-53
2022/09/21 10:59:35;;;;;;;;;5.67;5.67;;;;;;;;5071875;27;50986;-53
2022/09/21 11:02:01;;;;;;;;;7.33;7.33;;;;;;;;5083525;27;51035;-54
2022/09/21 11:04:29;;;;;;;;;5.00;5.00;;;;;;;;5071629;27;51096;-52
2022/09/21 11:07:02;;;;;;;;;2.33;2.33;;;;;;;;5071596;28;50953;-52
2022/09/21 11:09:32;;;;;;;;;3.00;3.00;;;;;;;;5071574;27;51259;-51
2022/09/21 11:11:57;;;;;;;;;4.33;3.67;;;;;;;;5089061;27;51010;-52
2022/09/21 11:14:45;;;;;;;;;5.00;4.00;;;;;;;;5091759;27;51083;-53
2022/09/21 11:17:28;;;;;;;;;4.00;3.00;;;;;;;;5074961;27;51127;-52
2022/09/21 11:20:01;;;;;;;;;2.33;2.33;;;;;;;;5071258;27;51045;-52
2022/09/21 11:22:38;;;;;;;;;5.00;4.33;;;;;;;;5070034;28;50963;-52
2022/09/21 11:25:03;;;;;;;;;3.67;3.67;;;;;;;;5070888;27;50996;-51
2022/09/21 11:27:38;;;;;;;;;1.33;1.00;;;;;;;;5069544;28;51035;-54
2022/09/21 11:30:11;;;;;;;;;5.00;5.00;;;;;;;;5072358;27;51100;-54
2022/09/21 11:32:39;;;;;;;;;4.00;4.00;;;;;;;;5074607;27;51286;-55
2022/09/21 11:35:14;;;;;;;;;9.33;8.67;;;;;;;;5074659;27;51104;-54
2022/09/21 11:37:49;;;;;;;;;4.67;4.00;;;;;;;;5074616;27;51009;-55
2022/09/21 11:40:14;;;;;;;;;4.00;4.00;;;;;;;;5074571;27;51092;-54
2022/09/21 11:42:40;;;;;;;;;4.00;4.00;;;;;;;;5074478;27;50866;-53
2022/09/21 11:45:17;;;;;;;;;7.33;7.33;;;;;;;;5074475;27;52068;-54
2022/09/21 11:47:57;;;;;;;;;5.00;5.00;;;;;;;;5074862;27;50969;-51
2022/09/21 11:50:30;;;;;;;;;6.67;6.33;;;;;;;;5074890;27;51065;-51
2022/09/21 11:53:05;;;;;;;;;6.67;6.00;;;;;;;;5076986;27;50922;-51
2022/09/21 11:55:43;;;;;;;;;6.00;6.00;;;;;;;;5073802;27;52521;-52
2022/09/21 11:58:19;;;;;;;;;6.00;5.67;;;;;;;;5074385;27;50965;-53
2022/09/21 12:00:50;;;;;;;;;3.33;3.33;;;;;;;;5075785;27;51034;-53
2022/09/21 12:03:25;;;;;;;;;4.33;3.67;;;;;;;;5074903;27;51126;-54
2022/09/21 12:06:11;;;;;;;;;4.00;4.00;;;;;;;;5072724;27;53490;-54
2022/09/21 12:08:49;;;;;;;;;2.33;2.33;;;;;;;;5074007;28;51109;-54
2022/09/21 12:11:15;;;;;;;;;2.33;2.33;;;;;;;;5084916;27;51000;-53
2022/09/21 12:13:50;;;;;;;;;3.00;3.00;;;;;;;;5095161;27;50989;-55
2022/09/21 12:16:15;;;;;;;;;4.33;3.33;;;;;;;;5086525;27;52197;-51
2022/09/21 12:18:47;;;;;;;;;3.33;2.67;;;;;;;;5075312;27;51021;-52
2022/09/21 12:21:19;;;;;;;;;4.67;4.67;;;;;;;;5074899;27;51132;-53
2022/09/21 12:23:52;;;;;;;;;4.00;4.00;;;;;;;;5073393;27;51342;-54
2022/09/21 12:26:24;;;;;;;;;6.00;5.67;;;;;;;;5074209;27;51783;-52
2022/09/21 12:28:52;;;;;;;;;4.33;4.33;;;;;;;;5074377;27;51041;-54
2022/09/21 12:31:24;;;;;;;;;3.67;3.00;;;;;;;;5074343;27;50964;-50
2022/09/21 12:33:58;;;;;;;;;5.33;5.00;;;;;;;;5074302;27;50932;-50
2022/09/21 12:36:28;;;;;;;;;3.00;3.00;;;;;;;;5073643;27;51041;-51
2022/09/21 12:39:06;;;;;;;;;3.33;3.00;;;;;;;;5073733;27;50926;-54
2022/09/21 12:41:38;;;;;;;;;4.00;4.00;;;;;;;;5071440;27;51014;-54
2022/09/21 12:44:06;;;;;;;;;3.00;3.00;;;;;;;;5081327;27;51374;-51
2022/09/21 12:46:45;;;;;;;;;2.67;2.67;;;;;;;;5073742;27;51127;-50
2022/09/21 12:49:14;;;;;;;;;2.67;1.67;;;;;;;;5073324;27;51012;-48
2022/09/21 12:51:44;;;;;;;;;3.00;3.00;;;;;;;;5072080;28;51088;-51
2022/09/21 12:54:23;;;;;;;;;3.33;3.00;;;;;;;;5075360;27;51019;-53
2022/09/21 12:56:52;;;;;;;;;3.33;3.00;;;;;;;;5073077;27;51339;-52
2022/09/21 12:59:31;;;;;;;;;4.33;4.33;;;;;;;;5086962;27;51115;-51
2022/09/21 13:02:11;;;;;;;;;4.67;4.33;;;;;;;;5074009;27;51050;-53
2022/09/21 13:04:49;;;;;;;;;4.33;3.33;;;;;;;;5073765;28;51109;-52
2022/09/21 13:07:17;;;;;;;;;4.00;3.67;;;;;;;;5072968;27;52146;-52
2022/09/21 13:09:43;;;;;;;;;5.00;4.00;;;;;;;;5073133;27;50850;-53
2022/09/21 13:12:13;;;;;;;;;3.00;3.00;;;;;;;;5092699;27;51291;-50
2022/09/21 13:14:44;;;;;;;;;5.00;4.00;;;;;;;;5094335;27;51132;-49
2022/09/21 13:17:18;;;;;;;;;3.00;3.00;;;;;;;;5086985;27;52291;-52
2022/09/21 13:19:54;;;;;;;;;3.00;3.00;;;;;;;;5073197;27;50956;-53
2022/09/21 13:22:24;;;;;;;;;2.00;2.00;;;;;;;;5073476;27;50945;-53
2022/09/21 13:25:00;;;;;;;;;4.00;3.00;;;;;;;;5073291;27;50922;-51
2022/09/21 13:27:45;;;;;;;;;4.00;4.00;;;;;;;;5072905;27;51905;-49
2022/09/21 13:30:18;;;;;;;;;2.67;2.67;;;;;;;;5072426;27;50892;-52
2022/09/21 13:32:50;;;;;;;;;3.33;3.00;;;;;;;;5072945;27;51088;-53
2022/09/21 13:35:35;;;;;;;;;3.00;3.00;;;;;;;;5073308;28;51297;-51
2022/09/21 13:38:18;;;;;;;;;4.33;4.00;;;;;;;;5072402;28;51659;-53
2022/09/21 13:40:49;;;;;;;;;4.00;4.00;;;;;;;;5072177;27;51059;-54
2022/09/21 13:43:16;;;;;;;;;4.00;3.33;;;;;;;;5072725;27;50990;-52
2022/09/21 13:45:41;;;;;;;;;5.00;5.00;;;;;;;;5071611;28;51241;-52
2022/09/21 13:48:18;;;;;;;;;1.33;1.33;;;;;;;;5072206;27;51149;-52
2022/09/21 13:50:44;;;;;;;;;4.00;3.00;;;;;;;;5072689;27;51080;-49
2022/09/21 13:53:45;;;;;;;;;3.00;3.00;;;;;;;;5081412;27;51147;-51
2022/09/21 13:56:24;;;;;;;;;3.00;2.67;;;;;;;;5036950;28;51328;-50
2022/09/21 13:58:51;;;;;;;;;5.33;5.33;;;;;;;;5069441;27;51270;-53
2022/09/21 14:01:16;;;;;;;;;3.00;3.00;;;;;;;;5073472;27;51236;-50
2022/09/21 14:03:46;;;;;;;;;3.00;3.00;;;;;;;;5072335;27;51018;-54
2022/09/21 14:06:15;;;;;;;;;7.00;6.00;;;;;;;;5072674;27;50943;-54
2022/09/21 14:08:46;;;;;;;;;5.00;4.00;;;;;;;;5071149;27;51155;-52
2022/09/21 14:11:29;;;;;;;;;4.67;4.67;;;;;;;;5083525;27;50935;-51
2022/09/21 14:14:03;;;;;;;;;3.00;3.00;;;;;;;;5092630;27;51140;-52
2022/09/21 14:16:38;;;;;;;;;3.33;3.33;;;;;;;;5082367;27;51214;-51
2022/09/21 14:19:26;;;;;;;;;3.00;3.00;;;;;;;;5072144;27;51713;-50
2022/09/21 14:22:04;;;;;;;;;4.00;3.00;;;;;;;;5072399;27;51102;-51
2022/09/21 14:24:37;;;;;;;;;1.00;1.00;;;;;;;;5072142;27;51226;-53
2022/09/21 14:27:17;;;;;;;;;4.33;4.00;;;;;;;;5071976;27;50880;-51
2022/09/21 14:29:49;;;;;;;;;3.00;3.00;;;;;;;;5071447;27;52080;-53
2022/09/21 14:32:16;;;;;;;;;3.00;3.00;;;;;;;;5071988;28;51031;-53
2022/09/21 14:34:44;;;;;;;;;3.00;2.67;;;;;;;;5071888;27;51136;-52
2022/09/21 14:37:32;;;;;;;;;2.00;2.00;;;;;;;;5072000;27;51375;-52
2022/09/21 14:39:59;;;;;;;;;3.00;3.00;;;;;;;;5070533;28;51268;-53
2022/09/21 14:42:27;;;;;;;;;3.00;2.00;;;;;;;;5071883;27;51088;-52
2022/09/21 14:44:55;;;;;;;;;3.00;3.00;;;;;;;;5085040;27;51106;-52
2022/09/21 14:47:21;;;;;;;;;3.00;3.00;;;;;;;;5092094;27;51039;-54
2022/09/21 14:49:49;;;;;;;;;6.00;5.00;;;;;;;;5091985;27;52569;-53